Time;durP1;ratioP1;P1;durP2;ratioP2;P2;SDS_P1;SDS_P2;PMS_P1;PMS_P2;Temp;Humidity;BMP_temperature;BMP_pressure;BME280_temperature;BME280_humidity;BME280_pressure;Samples;Min_cycle;Max_cycle;Signal;HPM_P1;HPM_P2
2022/11/04 00:01:52;;;;;;;6.95;4.70;;;12.30;99.90;;;;;;5027903;28;20259;-73
2022/11/04 00:04:21;;;;;;;5.75;4.47;;;12.40;99.90;;;;;;5036699;28;20207;-73
2022/11/04 00:06:50;;;;;;;7.30;4.88;;;12.40;99.90;;;;;;5030214;28;20211;-72
2022/11/04 00:09:19;;;;;;;6.68;5.88;;;12.40;99.90;;;;;;5036681;28;20211;-74
2022/11/04 00:14:33;;;;;;;10.07;5.75;;;12.40;99.90;;;;;;5035584;28;20235;-74
2022/11/04 00:17:18;;;;;;;7.20;5.28;;;12.40;99.90;;;;;;5032397;28;20218;-72
2022/11/04 00:30:56;;;;;;;7.05;5.88;;;12.30;99.90;;;;;;5022151;28;20206;-73
2022/11/04 00:33:25;;;;;;;9.38;6.22;;;12.30;99.90;;;;;;5035716;28;20232;-72
2022/11/04 00:35:54;;;;;;;9.02;6.15;;;12.30;99.90;;;;;;5027852;28;20212;-73
2022/11/04 00:38:24;;;;;;;9.88;6.72;;;12.30;99.90;;;;;;5045318;28;20201;-73
2022/11/04 00:40:51;;;;;;;9.68;6.30;;;12.30;99.90;;;;;;5036527;28;20640;-73
2022/11/04 00:43:18;;;;;;;9.57;5.47;;;12.40;99.90;;;;;;5026426;28;20227;-72
2022/11/04 00:45:45;;;;;;;8.48;6.20;;;12.30;99.90;;;;;;5024471;28;20205;-72
2022/11/04 00:48:12;;;;;;;8.05;6.45;;;12.30;99.90;;;;;;5030230;28;20192;-74
2022/11/04 00:50:39;;;;;;;12.10;6.85;;;12.40;99.90;;;;;;5029266;28;20598;-72
2022/11/04 00:53:07;;;;;;;9.60;7.10;;;12.30;99.90;;;;;;5026707;28;20222;-73
2022/11/04 00:55:35;;;;;;;10.48;7.20;;;12.30;99.90;;;;;;5032515;28;20247;-74
2022/11/04 00:58:02;;;;;;;7.05;5.72;;;12.30;99.90;;;;;;5025592;28;20599;-73
2022/11/04 01:00:29;;;;;;;8.48;6.22;;;12.50;99.90;;;;;;5024219;28;20204;-73
2022/11/04 01:02:59;;;;;;;10.75;7.05;;;12.50;99.90;;;;;;5021159;28;20227;-72
2022/11/04 01:05:26;;;;;;;9.65;6.43;;;12.40;99.90;;;;;;5023921;28;20208;-71
2022/11/04 01:07:53;;;;;;;10.73;6.80;;;12.40;99.90;;;;;;5032414;28;20291;-73
2022/11/04 01:10:20;;;;;;;7.68;5.88;;;12.40;99.90;;;;;;5028319;28;20207;-73
2022/11/04 01:12:48;;;;;;;9.25;5.78;;;12.50;99.90;;;;;;5032705;28;20224;-71
2022/11/04 01:15:15;;;;;;;8.40;5.88;;;12.50;99.90;;;;;;5025856;28;20295;-73
2022/11/04 01:17:42;;;;;;;8.68;7.30;;;12.50;99.90;;;;;;5029643;28;20269;-73
2022/11/04 01:20:12;;;;;;;10.48;6.07;;;12.50;99.90;;;;;;5025271;28;20284;-74
2022/11/04 01:22:39;;;;;;;8.50;6.00;;;12.50;99.90;;;;;;5023447;28;20311;-73
2022/11/04 01:25:07;;;;;;;10.55;6.40;;;12.60;99.90;;;;;;5025532;28;20251;-72
2022/11/04 01:27:34;;;;;;;8.73;6.10;;;12.50;99.90;;;;;;5020086;28;20610;-73
2022/11/04 01:30:02;;;;;;;10.18;8.18;;;12.50;99.90;;;;;;5024966;28;20199;-73
2022/11/04 01:32:29;;;;;;;7.75;6.20;;;12.50;99.90;;;;;;5021407;28;20221;-73
2022/11/04 01:34:56;;;;;;;7.68;6.38;;;12.50;99.90;;;;;;5029869;28;20248;-72
2022/11/04 01:37:23;;;;;;;9.20;6.40;;;12.60;99.90;;;;;;5028197;28;20207;-74
2022/11/04 01:39:50;;;;;;;7.07;5.78;;;12.60;99.90;;;;;;5031895;28;20721;-73
2022/11/04 01:42:21;;;;;;;9.63;6.18;;;12.60;99.90;;;;;;5016237;28;20301;-73
2022/11/04 01:44:54;;;;;;;7.50;6.80;;;12.60;99.90;;;;;;5026103;28;20544;-73
2022/11/04 01:47:28;;;;;;;8.40;6.07;;;12.60;99.90;;;;;;5022575;28;20208;-73
2022/11/04 01:50:00;;;;;;;9.82;6.70;;;12.60;99.90;;;;;;5020584;28;20231;-73
2022/11/04 01:52:32;;;;;;;9.07;6.97;;;12.70;99.90;;;;;;5027504;28;20565;-74
2022/11/04 01:55:03;;;;;;;7.15;6.20;;;12.70;99.90;;;;;;5018190;28;20211;-72
2022/11/04 01:57:35;;;;;;;7.75;6.20;;;12.70;99.90;;;;;;5018003;28;20205;-74
2022/11/04 02:00:06;;;;;;;12.18;6.57;;;12.70;99.90;;;;;;5014520;28;20208;-74
2022/11/04 02:02:37;;;;;;;9.85;7.80;;;12.70;99.90;;;;;;5017208;28;20247;-73
2022/11/04 02:05:05;;;;;;;9.57;7.63;;;12.60;99.90;;;;;;5016248;28;20303;-73
2022/11/04 02:07:32;;;;;;;9.10;7.53;;;12.60;99.90;;;;;;5032326;28;20204;-72
2022/11/04 02:09:59;;;;;;;10.10;7.18;;;12.60;99.90;;;;;;5021032;28;20196;-72
2022/11/04 02:15:11;;;;;;;9.63;7.28;;;12.70;99.90;;;;;;5023370;28;20223;-72
2022/11/04 02:18:05;;;;;;;13.55;9.07;;;12.70;99.90;;;;;;5028720;28;20201;-73
2022/11/04 02:21:09;;;;;;;10.65;9.18;;;12.60;99.90;;;;;;5033823;28;20201;-71
2022/11/04 02:23:59;;;;;;;11.55;9.98;;;12.50;99.90;;;;;;5029060;28;20227;-73
2022/11/04 02:27:12;;;;;;;8.90;8.00;;;12.50;99.90;;;;;;5028777;28;20193;-72
2022/11/04 02:29:58;;;;;;;10.57;9.45;;;12.40;99.90;;;;;;4992303;28;20211;-73
2022/11/04 02:32:34;;;;;;;10.48;8.90;;;12.30;99.90;;;;;;5018834;28;20762;-73
2022/11/04 02:35:08;;;;;;;9.93;8.93;;;12.40;99.90;;;;;;5025064;28;20234;-72
2022/11/04 02:37:47;;;;;;;9.30;8.40;;;12.40;99.90;;;;;;5031559;28;20212;-73
2022/11/04 02:40:23;;;;;;;10.85;9.50;;;12.40;99.90;;;;;;5022060;28;20210;-74
2022/11/04 02:42:56;;;;;;;9.82;8.85;;;12.30;99.90;;;;;;5006427;28;20258;-73
2022/11/04 02:45:30;;;;;;;7.95;7.15;;;12.20;99.90;;;;;;5026737;28;20208;-73
2022/11/04 02:48:05;;;;;;;8.80;7.90;;;12.20;99.90;;;;;;5028868;28;20210;-72
2022/11/04 02:50:39;;;;;;;6.72;6.13;;;12.10;99.90;;;;;;5026634;28;20283;-73
2022/11/04 02:53:10;;;;;;;7.65;5.90;;;12.00;99.90;;;;;;5016018;28;20285;-75
2022/11/04 02:55:42;;;;;;;5.50;5.00;;;12.10;99.90;;;;;;5026084;28;20743;-74
2022/11/04 02:58:13;;;;;;;5.32;4.72;;;12.00;99.90;;;;;;5019246;28;20565;-72
2022/11/04 03:00:44;;;;;;;6.38;4.32;;;12.00;99.90;;;;;;5023337;28;20200;-72
2022/11/04 03:03:15;;;;;;;5.00;4.20;;;11.90;99.90;;;;;;5022557;28;20220;-72
2022/11/04 03:05:47;;;;;;;4.85;3.75;;;12.00;99.90;;;;;;5030643;28;20252;-73
2022/11/04 03:08:17;;;;;;;4.15;3.25;;;12.00;99.90;;;;;;5026996;28;20214;-73
2022/11/04 03:10:48;;;;;;;3.38;2.35;;;12.00;99.90;;;;;;5028344;28;20203;-73
2022/11/04 03:13:19;;;;;;;2.00;1.80;;;11.90;99.90;;;;;;5020632;28;20289;-74
2022/11/04 03:15:51;;;;;;;2.08;1.83;;;11.90;99.90;;;;;;5020664;28;20211;-71
2022/11/04 03:18:25;;;;;;;3.80;2.05;;;11.90;99.90;;;;;;5020611;28;20271;-73
2022/11/04 03:20:56;;;;;;;2.30;1.60;;;11.90;99.90;;;;;;5017208;28;20270;-73
2022/11/04 03:23:23;;;;;;;3.08;1.90;;;11.80;99.90;;;;;;5033005;28;20231;-73
2022/11/04 03:25:53;;;;;;;2.03;1.65;;;11.80;99.90;;;;;;5018575;28;20202;-72
2022/11/04 03:28:31;;;;;;;2.90;2.10;;;11.80;99.90;;;;;;5023894;28;20204;-72
2022/11/04 03:31:04;;;;;;;3.40;2.10;;;11.80;99.90;;;;;;5023224;28;20214;-72
2022/11/04 03:33:38;;;;;;;3.42;1.83;;;11.80;99.90;;;;;;5028359;28;20227;-73
2022/11/04 03:36:07;;;;;;;2.40;2.03;;;11.80;99.90;;;;;;5028863;28;20268;-72
2022/11/04 03:38:34;;;;;;;3.30;2.45;;;11.80;99.90;;;;;;5030727;28;20239;-73
2022/11/04 03:41:06;;;;;;;2.60;2.40;;;11.70;99.90;;;;;;5022160;28;20597;-72
2022/11/04 03:43:37;;;;;;;3.78;2.58;;;11.70;99.90;;;;;;5031369;28;20406;-73
2022/11/04 03:46:06;;;;;;;3.38;2.63;;;11.70;99.90;;;;;;5025908;28;20686;-73
2022/11/04 03:48:33;;;;;;;2.80;2.20;;;11.70;99.90;;;;;;5031279;28;20293;-74
2022/11/04 03:51:00;;;;;;;3.50;3.20;;;11.60;99.90;;;;;;5028261;28;20204;-73
2022/11/04 03:53:30;;;;;;;3.28;2.47;;;11.60;99.90;;;;;;5026431;28;20227;-72
2022/11/04 03:56:35;;;;;;;3.40;3.10;;;11.50;99.90;;;;;;5023473;28;20310;-72
2022/11/04 03:59:17;;;;;;;3.45;3.00;;;11.50;99.90;;;;;;5004279;28;20252;-72
2022/11/04 04:01:51;;;;;;;4.38;3.53;;;11.50;99.90;;;;;;5008990;28;20226;-72
2022/11/04 04:04:26;;;;;;;4.25;3.83;;;11.40;99.90;;;;;;5030529;28;20219;-72
2022/11/04 04:06:57;;;;;;;4.60;4.15;;;11.40;99.90;;;;;;5038646;28;20196;-71
2022/11/04 04:09:37;;;;;;;5.25;3.67;;;11.40;99.90;;;;;;5033326;28;20610;-72
2022/11/04 04:12:09;;;;;;;4.20;3.60;;;11.40;99.90;;;;;;5027660;28;20324;-72
2022/11/04 04:14:43;;;;;;;5.10;4.60;;;11.40;99.90;;;;;;5030784;28;20287;-73
2022/11/04 04:17:18;;;;;;;5.28;4.65;;;11.40;99.90;;;;;;5028778;28;20213;-73
2022/11/04 04:19:48;;;;;;;5.47;4.57;;;11.40;99.90;;;;;;5012005;28;20253;-71
2022/11/04 04:22:19;;;;;;;4.75;4.30;;;11.30;99.90;;;;;;5022697;28;20397;-74
2022/11/04 04:27:35;;;;;;;5.63;4.85;;;11.30;99.90;;;;;;5025839;28;20322;-73
2022/11/04 04:30:06;;;;;;;5.63;5.10;;;11.20;99.90;;;;;;5022705;28;20201;-73
2022/11/04 04:32:39;;;;;;;5.35;4.95;;;11.20;99.90;;;;;;5030151;28;20339;-73
2022/11/04 04:44:58;;;;;;;5.72;5.10;;;11.30;99.90;;;;;;5027817;28;20205;-73
2022/11/04 04:46:18;;;;;;;5.38;4.85;;;11.30;99.90;;;;;;5032013;28;20244;-74
2022/11/04 04:48:46;;;;;;;7.80;7.10;;;11.30;99.90;;;;;;5025646;28;20282;-73
2022/11/04 04:51:14;;;;;;;6.75;6.10;;;11.30;99.90;;;;;;5029278;28;20266;-73
2022/11/04 04:53:40;;;;;;;9.73;5.65;;;11.30;99.90;;;;;;5028266;28;20207;-74
2022/11/04 04:56:07;;;;;;;6.38;5.78;;;11.30;99.90;;;;;;5029341;28;20258;-72
2022/11/04 04:58:34;;;;;;;6.47;5.57;;;11.30;99.90;;;;;;5027274;28;20205;-75
2022/11/04 05:01:03;;;;;;;7.72;6.93;;;11.40;99.90;;;;;;5019387;28;20228;-73
2022/11/04 05:03:30;;;;;;;6.32;5.70;;;11.50;99.90;;;;;;5030620;28;20271;-73
2022/11/04 05:06:00;;;;;;;8.70;6.95;;;11.50;99.90;;;;;;5029186;28;20247;-72
2022/11/04 05:08:27;;;;;;;7.07;6.00;;;11.50;99.90;;;;;;5030515;28;20247;-72
2022/11/04 05:10:54;;;;;;;7.10;6.40;;;11.50;99.90;;;;;;5028045;28;20249;-74
2022/11/04 05:13:28;;;;;;;7.50;5.97;;;11.50;99.90;;;;;;5025503;28;20228;-74
2022/11/04 05:15:55;;;;;;;8.32;7.25;;;11.50;99.90;;;;;;5023514;28;20683;-73
2022/11/04 05:18:24;;;;;;;7.47;6.18;;;11.50;99.90;;;;;;5038403;28;20237;-74
2022/11/04 05:20:50;;;;;;;7.32;6.05;;;11.50;99.90;;;;;;5046716;28;20276;-73
2022/11/04 05:23:19;;;;;;;6.88;6.18;;;11.40;99.90;;;;;;5042500;28;20221;-74
2022/11/04 05:25:46;;;;;;;8.68;6.05;;;11.40;99.90;;;;;;5042746;28;20256;-73
2022/11/04 05:28:13;;;;;;;6.03;5.43;;;11.40;99.90;;;;;;5031405;28;20223;-71
2022/11/04 05:30:41;;;;;;;6.90;6.20;;;11.40;99.90;;;;;;5036241;28;20285;-74
2022/11/04 05:33:08;;;;;;;7.22;6.00;;;11.40;99.90;;;;;;5032567;28;20250;-73
2022/11/04 05:35:35;;;;;;;6.72;6.05;;;11.30;99.90;;;;;;5028265;28;20206;-73
2022/11/04 05:38:02;;;;;;;7.20;6.30;;;11.30;99.90;;;;;;5020055;28;20204;-74
2022/11/04 05:40:30;;;;;;;7.53;5.60;;;11.30;99.90;;;;;;5019072;28;20211;-72
2022/11/04 05:42:59;;;;;;;7.47;5.78;;;11.30;99.90;;;;;;5028023;28;20237;-72
2022/11/04 05:45:26;;;;;;;7.60;6.90;;;11.30;99.90;;;;;;5029192;28;20202;-73
2022/11/04 05:47:58;;;;;;;8.27;5.90;;;11.30;99.90;;;;;;5031521;28;20610;-74
2022/11/04 05:50:25;;;;;;;7.50;6.38;;;11.30;99.90;;;;;;5036338;28;20335;-73
2022/11/04 05:53:01;;;;;;;6.88;6.20;;;11.30;99.90;;;;;;5039458;28;20230;-73
2022/11/04 05:55:29;;;;;;;7.13;6.43;;;11.40;99.90;;;;;;5027647;28;20239;-73
2022/11/04 05:57:58;;;;;;;7.50;6.80;;;11.50;99.90;;;;;;5033886;28;20223;-74
2022/11/04 06:00:25;;;;;;;8.10;7.25;;;11.50;99.90;;;;;;5032555;28;20208;-73
2022/11/04 06:02:55;;;;;;;6.80;5.95;;;11.50;99.90;;;;;;5029391;28;20228;-74
2022/11/04 06:05:22;;;;;;;13.05;8.25;;;11.60;99.90;;;;;;5029697;28;20223;-74
2022/11/04 06:07:49;;;;;;;8.25;6.50;;;11.60;99.90;;;;;;5029350;28;20258;-73
2022/11/04 06:10:17;;;;;;;6.18;5.28;;;11.70;99.90;;;;;;5029229;28;20211;-74
2022/11/04 06:12:45;;;;;;;7.32;6.63;;;11.70;99.90;;;;;;5041583;28;20253;-73
2022/11/04 06:15:12;;;;;;;10.30;6.60;;;11.70;99.90;;;;;;5045758;28;20187;-73
2022/11/04 06:17:39;;;;;;;6.78;5.97;;;11.70;99.90;;;;;;5035042;28;20261;-73
2022/11/04 06:20:07;;;;;;;6.28;5.63;;;11.60;99.90;;;;;;5043817;28;20213;-73
2022/11/04 06:22:34;;;;;;;9.03;6.83;;;11.70;99.90;;;;;;5041581;28;20455;-72
2022/11/04 06:25:01;;;;;;;7.90;7.10;;;11.80;99.90;;;;;;5041199;28;20522;-73
2022/11/04 06:27:28;;;;;;;6.65;6.00;;;11.80;99.90;;;;;;5041852;28;20229;-74
2022/11/04 06:29:57;;;;;;;6.47;5.88;;;11.90;99.90;;;;;;5039263;28;20430;-72
2022/11/04 06:32:24;;;;;;;9.15;6.60;;;11.80;99.90;;;;;;5043040;28;20286;-73
2022/11/04 06:34:51;;;;;;;6.10;5.50;;;11.70;99.90;;;;;;5039728;28;20211;-75
2022/11/04 06:37:18;;;;;;;7.72;5.53;;;11.80;99.90;;;;;;5043005;28;20461;-72
2022/11/04 06:39:45;;;;;;;6.07;5.30;;;11.70;99.90;;;;;;5044002;28;20270;-72
2022/11/04 06:42:12;;;;;;;6.93;5.85;;;11.70;99.90;;;;;;5042913;28;20257;-74
2022/11/04 06:44:39;;;;;;;6.22;5.38;;;11.60;99.90;;;;;;5043702;28;20210;-73
2022/11/04 06:47:08;;;;;;;7.15;5.22;;;11.60;99.90;;;;;;5034990;28;20220;-74
2022/11/04 06:49:35;;;;;;;6.90;5.93;;;11.60;99.90;;;;;;5043019;28;20229;-72
2022/11/04 06:52:02;;;;;;;5.25;4.80;;;11.60;99.90;;;;;;5041605;28;20425;-72
2022/11/04 06:54:29;;;;;;;7.15;6.25;;;11.60;99.90;;;;;;5038551;28;20201;-74
2022/11/04 06:56:56;;;;;;;6.30;5.70;;;11.60;99.90;;;;;;5034097;28;20246;-74
2022/11/04 06:59:23;;;;;;;8.35;5.10;;;11.50;99.90;;;;;;5029768;28;20192;-73
2022/11/04 07:01:51;;;;;;;5.75;5.25;;;11.50;99.90;;;;;;5027021;28;20232;-72
2022/11/04 07:04:19;;;;;;;6.32;5.57;;;11.60;99.90;;;;;;5019277;28;20226;-73
2022/11/04 07:06:47;;;;;;;9.90;6.28;;;11.50;99.90;;;;;;5026457;28;20229;-74
2022/11/04 07:09:15;;;;;;;8.52;5.03;;;11.50;99.90;;;;;;5018792;28;20277;-72
2022/11/04 07:11:43;;;;;;;9.70;5.68;;;11.50;99.90;;;;;;5026936;28;20226;-74
2022/11/04 07:14:11;;;;;;;6.30;5.70;;;11.50;99.90;;;;;;5031183;28;20645;-74
2022/11/04 07:16:38;;;;;;;5.55;4.95;;;11.60;99.90;;;;;;5031529;28;20376;-73
2022/11/04 07:19:06;;;;;;;5.90;4.72;;;11.50;99.90;;;;;;5027426;28;20628;-76
2022/11/04 07:21:34;;;;;;;7.65;5.13;;;11.60;99.90;;;;;;5027402;28;20239;-73
2022/11/04 07:24:02;;;;;;;6.78;5.32;;;11.60;99.90;;;;;;5029990;28;20285;-73
2022/11/04 07:26:29;;;;;;;7.80;6.30;;;11.60;99.90;;;;;;5031293;28;20200;-74
2022/11/04 07:28:56;;;;;;;6.72;6.03;;;11.60;99.90;;;;;;5027799;28;20558;-71
2022/11/04 07:31:23;;;;;;;6.55;5.05;;;11.60;99.90;;;;;;5027673;28;20204;-73
2022/11/04 07:33:50;;;;;;;5.93;5.32;;;11.60;99.90;;;;;;5029694;28;20247;-74
2022/11/04 07:36:19;;;;;;;6.47;5.72;;;11.60;99.90;;;;;;5041676;28;20233;-72
2022/11/04 07:38:48;;;;;;;5.88;5.30;;;11.60;99.90;;;;;;5029295;28;20208;-74
2022/11/04 07:41:19;;;;;;;9.88;6.40;;;11.50;99.90;;;;;;5022199;28;20200;-72
2022/11/04 07:43:49;;;;;;;6.65;5.50;;;11.50;99.90;;;;;;5024594;28;20258;-74
2022/11/04 07:46:17;;;;;;;6.35;5.75;;;11.50;99.90;;;;;;5035189;28;20199;-72
2022/11/04 07:48:44;;;;;;;10.23;5.72;;;11.50;99.90;;;;;;5029730;28;20290;-72
2022/11/04 07:51:13;;;;;;;8.63;5.75;;;11.40;99.90;;;;;;5026928;28;20229;-74
2022/11/04 07:53:40;;;;;;;6.57;5.50;;;11.40;99.90;;;;;;5025323;28;20576;-74
2022/11/04 07:56:12;;;;;;;7.40;6.60;;;11.40;99.90;;;;;;5036590;28;20268;-74
2022/11/04 07:58:39;;;;;;;6.97;6.28;;;11.40;99.90;;;;;;5033539;28;20295;-74
2022/11/04 08:01:08;;;;;;;6.45;5.78;;;11.50;99.90;;;;;;5021494;28;20234;-75
2022/11/04 08:03:36;;;;;;;8.27;6.18;;;11.50;99.90;;;;;;5029290;28;20258;-73
2022/11/04 08:06:05;;;;;;;7.93;7.13;;;11.50;99.90;;;;;;5029943;28;20206;-74
2022/11/04 08:08:33;;;;;;;10.32;7.88;;;11.50;99.90;;;;;;5028137;28;20291;-74
2022/11/04 08:11:02;;;;;;;10.52;8.68;;;11.50;99.90;;;;;;5028191;28;20218;-74
2022/11/04 08:13:32;;;;;;;7.55;6.20;;;11.40;99.90;;;;;;5032776;28;20703;-74
2022/11/04 08:16:02;;;;;;;9.13;7.28;;;11.50;99.90;;;;;;5034165;28;20214;-73
2022/11/04 08:18:30;;;;;;;9.60;6.95;;;11.40;99.90;;;;;;5030578;28;20241;-75
2022/11/04 08:20:57;;;;;;;10.00;6.25;;;11.50;99.90;;;;;;5033451;28;20787;-73
2022/11/04 08:23:24;;;;;;;8.70;7.32;;;11.50;99.90;;;;;;5030170;28;20586;-73
2022/11/04 08:25:51;;;;;;;9.95;6.93;;;11.60;99.90;;;;;;5030635;28;20298;-72
2022/11/04 08:28:19;;;;;;;7.40;6.47;;;11.80;99.90;;;;;;5028405;28;20206;-74
2022/11/04 08:30:54;;;;;;;5.95;5.45;;;12.00;99.90;;;;;;5031452;28;20195;-74
2022/11/04 08:33:21;;;;;;;6.90;6.03;;;12.30;99.90;;;;;;5025083;28;20310;-73
2022/11/04 08:35:49;;;;;;;7.53;5.25;;;12.80;99.90;;;;;;5020234;28;20639;-74
2022/11/04 08:38:16;;;;;;;7.95;5.25;;;13.30;99.90;;;;;;5021325;28;20224;-74
2022/11/04 08:40:44;;;;;;;6.72;5.18;;;13.60;99.90;;;;;;5025512;28;20232;-74
2022/11/04 08:43:11;;;;;;;5.13;4.18;;;14.10;99.90;;;;;;5020145;28;20225;-73
2022/11/04 08:45:40;;;;;;;7.30;4.97;;;13.90;99.90;;;;;;5026151;28;20303;-73
2022/11/04 08:48:08;;;;;;;8.43;5.40;;;13.70;99.90;;;;;;5028030;28;20304;-74
2022/11/04 08:50:35;;;;;;;6.88;4.60;;;13.50;99.90;;;;;;5028562;28;20196;-76
2022/11/04 08:53:03;;;;;;;6.93;6.22;;;13.30;99.90;;;;;;5028382;28;20286;-72
2022/11/04 08:55:30;;;;;;;7.07;5.40;;;13.10;99.90;;;;;;5024434;28;20620;-73
2022/11/04 08:57:57;;;;;;;5.45;4.95;;;12.80;99.90;;;;;;5024229;28;20760;-75
2022/11/04 09:00:24;;;;;;;6.13;5.50;;;12.80;99.90;;;;;;5021755;28;20208;-73
2022/11/04 09:02:51;;;;;;;7.70;5.05;;;12.60;99.90;;;;;;5026197;28;20227;-72
2022/11/04 09:05:20;;;;;;;8.93;5.97;;;12.50;99.90;;;;;;5027734;28;20630;-71
2022/11/04 09:07:47;;;;;;;9.85;6.05;;;12.50;99.90;;;;;;5025300;28;20234;-73
2022/11/04 09:10:14;;;;;;;7.25;6.05;;;12.50;99.90;;;;;;5020069;28;20269;-73
2022/11/04 09:12:42;;;;;;;6.13;4.57;;;12.50;99.90;;;;;;5030460;28;20227;-73
2022/11/04 09:15:10;;;;;;;6.07;5.10;;;12.80;99.90;;;;;;5029372;28;20330;-71
2022/11/04 09:17:43;;;;;;;4.53;4.13;;;13.00;99.90;;;;;;5033189;28;20214;-70
2022/11/04 09:20:11;;;;;;;5.03;4.32;;;13.50;99.90;;;;;;5032222;28;20254;-71
2022/11/04 09:23:02;;;;;;;5.70;5.03;;;13.50;99.90;;;;;;5031351;28;20587;-70
2022/11/04 09:25:31;;;;;;;6.00;4.93;;;13.40;99.90;;;;;;5021742;28;20219;-73
2022/11/04 09:27:58;;;;;;;5.20;4.70;;;13.10;99.90;;;;;;5019342;28;20208;-71
2022/11/04 09:30:26;;;;;;;5.70;5.20;;;13.10;99.90;;;;;;5019981;28;20292;-72
2022/11/04 09:32:53;;;;;;;5.22;4.53;;;13.10;99.90;;;;;;5018019;28;20299;-72
2022/11/04 09:35:20;;;;;;;5.05;4.55;;;12.90;99.90;;;;;;5019260;28;20216;-72
2022/11/04 09:37:49;;;;;;;5.65;3.17;;;12.80;99.90;;;;;;5022261;28;20228;-72
2022/11/04 09:40:21;;;;;;;4.60;4.20;;;12.80;99.90;;;;;;5018258;28;20308;-71
2022/11/04 09:43:00;;;;;;;4.90;3.88;;;12.90;99.90;;;;;;5019269;28;20311;-70
2022/11/04 09:45:28;;;;;;;3.85;3.45;;;13.10;99.90;;;;;;5021368;28;20382;-72
2022/11/04 09:48:00;;;;;;;4.55;3.47;;;13.80;99.90;;;;;;5019659;28;20288;-73
2022/11/04 09:50:30;;;;;;;4.30;3.60;;;15.10;99.90;;;;;;5025400;28;20653;-71
2022/11/04 09:53:04;;;;;;;6.03;4.97;;;15.90;99.90;;;;;;5031421;28;20486;-71
2022/11/04 09:55:40;;;;;;;4.83;4.43;;;16.10;99.90;;;;;;5029889;28;20960;-70
2022/11/04 09:58:12;;;;;;;5.20;4.45;;;15.50;99.90;;;;;;5001448;28;21072;-73
2022/11/04 10:00:40;;;;;;;5.00;3.97;;;15.60;99.90;;;;;;5019574;28;20745;-73
2022/11/04 10:03:21;;;;;;;6.40;4.33;;;15.40;99.90;;;;;;5020964;28;20488;-74
2022/11/04 10:06:02;;;;;;;4.90;4.47;;;15.50;99.90;;;;;;5005141;28;20442;-73
2022/11/04 10:08:56;;;;;;;4.97;4.47;;;15.10;99.90;;;;;;5026365;28;20478;-72
2022/11/04 10:11:34;;;;;;;4.28;3.88;;;14.70;99.90;;;;;;4992832;28;20206;-71
2022/11/04 10:14:32;;;;;;;6.05;4.35;;;14.90;99.90;;;;;;5021662;28;20241;-72
2022/11/04 10:17:09;;;;;;;4.85;4.35;;;14.90;99.90;;;;;;4995361;28;20206;-72
2022/11/04 10:19:50;;;;;;;6.75;3.22;;;14.90;99.90;;;;;;5020387;28;20632;-73
2022/11/04 10:22:28;;;;;;;3.55;3.25;;;15.50;99.90;;;;;;5023431;28;20246;-71
2022/11/04 10:25:03;;;;;;;3.95;2.58;;;15.90;99.90;;;;;;5005712;28;20208;-72
2022/11/04 10:27:36;;;;;;;3.58;2.53;;;16.00;99.90;;;;;;5024750;28;20201;-72
2022/11/04 10:30:07;;;;;;;6.10;2.97;;;16.20;99.90;;;;;;5029918;28;20206;-73
2022/11/04 10:32:39;;;;;;;5.10;2.35;;;16.00;99.90;;;;;;5027109;28;20694;-72
2022/11/04 10:35:18;;;;;;;4.45;2.33;;;15.20;99.90;;;;;;5034421;28;20203;-72
2022/11/04 10:37:46;;;;;;;2.65;2.45;;;15.00;99.90;;;;;;5033966;28;20281;-71
2022/11/04 10:40:25;;;;;;;3.03;2.72;;;14.60;99.90;;;;;;5020581;28;20771;-72
2022/11/04 10:42:54;;;;;;;3.35;2.90;;;14.40;99.90;;;;;;5030916;28;20265;-73
2022/11/04 10:45:35;;;;;;;2.35;2.15;;;14.20;99.90;;;;;;5028776;28;20723;-72
2022/11/04 10:48:07;;;;;;;4.65;2.60;;;14.10;99.90;;;;;;5029310;28;20712;-72
2022/11/04 10:50:39;;;;;;;7.25;4.53;;;14.20;99.90;;;;;;5015128;28;20205;-74
2022/11/04 10:53:12;;;;;;;2.90;2.40;;;14.20;99.90;;;;;;5021281;28;20718;-73
2022/11/04 10:55:47;;;;;;;3.70;2.90;;;14.10;99.90;;;;;;5028627;28;20213;-72
2022/11/04 10:58:21;;;;;;;3.95;3.00;;;14.10;99.90;;;;;;5019415;28;20204;-71
2022/11/04 11:00:48;;;;;;;3.60;2.45;;;14.20;99.90;;;;;;5030825;28;20193;-71
2022/11/04 11:03:33;;;;;;;4.85;3.05;;;14.60;99.90;;;;;;5043849;28;20240;-71
2022/11/04 11:06:15;;;;;;;3.75;3.35;;;14.80;99.90;;;;;;5045336;28;20231;-72
2022/11/04 11:08:43;;;;;;;5.95;3.83;;;14.80;99.90;;;;;;5039371;28;20423;-72
2022/11/04 11:11:11;;;;;;;5.10;3.33;;;14.80;99.90;;;;;;5040473;28;20218;-73
2022/11/04 11:13:41;;;;;;;12.98;3.17;;;14.90;99.90;;;;;;5042908;28;20195;-74
2022/11/04 11:16:12;;;;;;;6.20;3.40;;;15.00;99.90;;;;;;5039592;28;20197;-72
2022/11/04 11:19:13;;;;;;;6.10;4.38;;;15.20;99.90;;;;;;5037889;28;20248;-73
2022/11/04 11:21:43;;;;;;;5.28;4.78;;;15.20;99.90;;;;;;5037318;28;20298;-73
2022/11/04 11:24:16;;;;;;;5.88;4.60;;;15.00;99.90;;;;;;5037924;28;20198;-72
2022/11/04 11:26:47;;;;;;;4.75;3.75;;;15.00;99.90;;;;;;5044424;28;20196;-71
2022/11/04 11:29:20;;;;;;;5.45;4.22;;;14.80;99.90;;;;;;5034901;28;20213;-72
2022/11/04 11:31:48;;;;;;;6.45;4.93;;;14.90;99.90;;;;;;5040786;28;20216;-72
2022/11/04 11:34:19;;;;;;;5.43;4.72;;;14.80;99.90;;;;;;5041315;28;20194;-73
2022/11/04 11:36:46;;;;;;;6.10;4.90;;;14.90;99.90;;;;;;5031692;28;20712;-73
2022/11/04 11:39:20;;;;;;;6.50;4.45;;;15.00;99.90;;;;;;5019535;28;20232;-72
2022/11/04 11:41:56;;;;;;;7.55;5.43;;;15.10;99.90;;;;;;5029212;28;20225;-72
2022/11/04 11:44:31;;;;;;;6.65;4.88;;;14.90;99.90;;;;;;5019539;28;20202;-72
2022/11/04 11:47:02;;;;;;;5.85;5.25;;;14.90;99.90;;;;;;5031443;28;20218;-71
2022/11/04 11:49:32;;;;;;;8.00;5.20;;;15.00;99.90;;;;;;5017703;28;20245;-71
2022/11/04 11:52:24;;;;;;;5.90;3.85;;;15.00;99.90;;;;;;5014046;28;20526;-73
2022/11/04 11:54:55;;;;;;;5.75;3.97;;;15.00;99.90;;;;;;5020593;28;20244;-72
2022/11/04 11:57:35;;;;;;;5.88;4.07;;;14.90;99.90;;;;;;5031371;28;20198;-69
2022/11/04 12:00:08;;;;;;;6.10;4.10;;;14.50;99.90;;;;;;5028439;28;20293;-72
2022/11/04 12:02:44;;;;;;;5.13;3.42;;;14.20;99.90;;;;;;5026005;28;20232;-71
2022/11/04 12:05:12;;;;;;;4.72;4.20;;;14.10;99.90;;;;;;5018289;28;20213;-72
2022/11/04 12:07:47;;;;;;;5.93;4.50;;;14.20;99.90;;;;;;5022424;28;20200;-72
2022/11/04 12:10:24;;;;;;;7.78;4.72;;;14.20;99.90;;;;;;5006722;28;20201;-72
2022/11/04 12:13:00;;;;;;;12.32;4.40;;;14.40;99.90;;;;;;5000414;28;20280;-72
2022/11/04 12:15:42;;;;;;;5.82;4.85;;;14.20;99.90;;;;;;5001414;28;20200;-72
2022/11/04 12:18:30;;;;;;;6.60;4.47;;;14.10;99.90;;;;;;5001941;28;20213;-72
2022/11/04 12:21:06;;;;;;;6.40;4.60;;;14.10;99.90;;;;;;4998361;28;20308;-74
2022/11/04 12:23:45;;;;;;;7.85;5.38;;;14.10;99.90;;;;;;5024646;28;20224;-71
2022/11/04 12:26:26;;;;;;;6.15;4.93;;;14.10;99.90;;;;;;5019605;28;20203;-74
2022/11/04 12:29:32;;;;;;;8.90;4.70;;;14.00;99.90;;;;;;5005411;28;20275;-71
2022/11/04 12:32:09;;;;;;;6.70;5.40;;;14.00;99.90;;;;;;5029036;28;20312;-70
2022/11/04 12:34:49;;;;;;;4.90;4.40;;;13.90;99.90;;;;;;5004451;28;20200;-71
2022/11/04 12:37:23;;;;;;;8.63;5.28;;;13.80;99.90;;;;;;5030009;28;20222;-70
2022/11/04 12:40:09;;;;;;;8.20;5.05;;;13.70;99.90;;;;;;5030962;28;20224;-72
2022/11/04 12:42:51;;;;;;;6.28;5.68;;;13.70;99.90;;;;;;5007501;28;20315;-73
2022/11/04 12:45:30;;;;;;;12.32;6.93;;;13.60;99.90;;;;;;5027687;28;20201;-74
2022/11/04 12:48:04;;;;;;;9.52;4.80;;;13.60;99.90;;;;;;5025884;28;20200;-71
2022/11/04 12:50:58;;;;;;;7.60;4.85;;;13.70;99.90;;;;;;5030168;28;20215;-72
2022/11/04 12:53:53;;;;;;;11.30;4.50;;;13.60;99.90;;;;;;5034437;28;20311;-74
2022/11/04 12:56:24;;;;;;;5.30;4.40;;;13.80;99.90;;;;;;5017053;28;20288;-72
2022/11/04 12:59:14;;;;;;;7.07;4.60;;;14.00;99.90;;;;;;5032849;28;20294;-73
2022/11/04 13:01:46;;;;;;;6.35;3.20;;;14.00;99.90;;;;;;5018284;28;20292;-72
2022/11/04 13:04:19;;;;;;;10.25;4.07;;;13.90;99.90;;;;;;5040805;28;20223;-74
2022/11/04 13:06:52;;;;;;;3.50;3.10;;;14.00;99.90;;;;;;5028477;28;20235;-73
2022/11/04 13:09:30;;;;;;;6.68;4.97;;;14.00;99.90;;;;;;5022062;28;20615;-73
2022/11/04 13:12:03;;;;;;;4.75;3.10;;;14.00;99.90;;;;;;5018879;28;20280;-73
2022/11/04 13:14:36;;;;;;;6.80;3.88;;;14.00;99.90;;;;;;5032467;28;20283;-74
2022/11/04 13:17:07;;;;;;;7.57;3.67;;;13.90;99.90;;;;;;5026951;28;20202;-72
2022/11/04 13:19:43;;;;;;;5.93;3.00;;;14.00;99.90;;;;;;5026561;28;20215;-74
2022/11/04 13:22:17;;;;;;;6.07;3.72;;;14.00;99.90;;;;;;5019889;28;20232;-73
2022/11/04 13:24:50;;;;;;;5.28;3.42;;;14.10;99.90;;;;;;5029132;28;20288;-73
2022/11/04 13:27:21;;;;;;;4.75;3.33;;;14.20;99.90;;;;;;5030041;28;20218;-74
2022/11/04 13:29:51;;;;;;;5.30;3.05;;;14.10;99.90;;;;;;5030018;28;20287;-74
2022/11/04 13:32:26;;;;;;;8.27;3.75;;;14.20;99.90;;;;;;5027248;28;20315;-74
2022/11/04 13:35:01;;;;;;;9.52;3.58;;;14.10;99.90;;;;;;5025812;28;20556;-75
2022/11/04 13:37:32;;;;;;;4.90;2.70;;;14.00;99.90;;;;;;5032131;28;20282;-73